Time;durP1;ratioP1;P1;durP2;ratioP2;P2;SDS_P1;SDS_P2;PMS_P1;PMS_P2;Temp;Humidity;BMP_temperature;BMP_pressure;BME280_temperature;BME280_humidity;BME280_pressure;Samples;Min_cycle;Max_cycle;Signal;HPM_P1;HPM_P2
2023/01/05 00:02:13;;;;;;;13.07;4.65;;;27.00;53.40;;;;;;4993166;28;20709;-47
2023/01/05 00:04:47;;;;;;;13.20;4.65;;;27.00;53.40;;;;;;5009211;28;20223;-49
2023/01/05 00:07:18;;;;;;;11.20;3.90;;;27.00;53.30;;;;;;5012177;28;20197;-47
2023/01/05 00:09:48;;;;;;;11.02;4.03;;;27.10;53.30;;;;;;5011370;28;20193;-47
2023/01/05 00:23:27;;;;;;;10.93;4.53;;;27.20;53.70;;;;;;4993038;28;20711;-47
2023/01/05 00:25:58;;;;;;;9.27;4.05;;;27.20;53.40;;;;;;4992750;28;20201;-48
2023/01/05 00:28:28;;;;;;;11.88;4.50;;;27.20;53.30;;;;;;4992677;28;20202;-46
2023/01/05 00:30:59;;;;;;;10.75;4.20;;;27.30;53.30;;;;;;4993208;28;20198;-50
2023/01/05 00:33:30;;;;;;;11.07;3.70;;;27.30;53.30;;;;;;5012691;28;20200;-50
2023/01/05 00:36:02;;;;;;;13.07;4.10;;;27.40;53.30;;;;;;5010868;28;20208;-47
2023/01/05 00:38:33;;;;;;;10.13;4.22;;;27.40;53.30;;;;;;4992498;28;20213;-47
2023/01/05 00:41:04;;;;;;;10.70;4.00;;;27.40;53.30;;;;;;4993532;28;20197;-46
2023/01/05 00:43:34;;;;;;;11.45;4.20;;;27.40;53.20;;;;;;5011469;28;20231;-52
2023/01/05 00:46:05;;;;;;;9.48;4.03;;;27.50;53.30;;;;;;5011049;28;20193;-46
2023/01/05 00:48:36;;;;;;;9.73;3.45;;;27.50;53.30;;;;;;5011420;28;20243;-48
2023/01/05 00:51:08;;;;;;;10.68;3.58;;;27.50;53.30;;;;;;5012052;28;20197;-49
2023/01/05 00:53:39;;;;;;;8.98;3.30;;;27.60;53.30;;;;;;5011271;28;20657;-52
2023/01/05 00:56:10;;;;;;;10.45;3.72;;;27.60;53.20;;;;;;5012895;28;20208;-48
2023/01/05 00:58:41;;;;;;;10.20;3.33;;;27.60;53.20;;;;;;5014213;28;20235;-52
2023/01/05 01:01:12;;;;;;;9.82;2.80;;;27.70;53.30;;;;;;5029385;28;20200;-48
2023/01/05 01:03:43;;;;;;;8.85;3.13;;;27.70;53.30;;;;;;5001877;28;20271;-48
2023/01/05 01:06:16;;;;;;;4.93;2.55;;;27.70;53.30;;;;;;5011583;28;20855;-49
2023/01/05 01:08:47;;;;;;;9.15;3.00;;;27.80;53.90;;;;;;5011431;28;20193;-46
2023/01/05 01:11:18;;;;;;;7.68;2.83;;;27.80;53.20;;;;;;5010156;28;20199;-48
2023/01/05 01:13:49;;;;;;;5.32;2.50;;;27.80;53.00;;;;;;5011376;28;20544;-48
2023/01/05 01:16:19;;;;;;;7.72;2.58;;;27.90;53.10;;;;;;5010405;28;20564;-49
2023/01/05 01:18:50;;;;;;;7.18;2.40;;;27.90;53.00;;;;;;5011211;28;20232;-54
2023/01/05 01:21:23;;;;;;;5.53;2.55;;;27.90;53.00;;;;;;5010703;28;20196;-48
2023/01/05 01:23:54;;;;;;;7.07;2.67;;;28.00;53.00;;;;;;5010418;28;20236;-51
2023/01/05 01:26:24;;;;;;;7.15;2.55;;;28.10;53.00;;;;;;5011201;28;20657;-52
2023/01/05 01:28:55;;;;;;;8.32;2.97;;;28.10;53.00;;;;;;5010515;28;20239;-50
2023/01/05 01:31:26;;;;;;;5.25;2.20;;;28.10;52.90;;;;;;5009834;28;20197;-49
2023/01/05 01:33:56;;;;;;;6.65;2.53;;;28.10;52.90;;;;;;4991262;28;20567;-51
2023/01/05 01:36:29;;;;;;;7.97;2.80;;;28.20;53.00;;;;;;4993009;28;20205;-49
2023/01/05 01:39:00;;;;;;;7.93;2.63;;;28.20;53.00;;;;;;5010706;28;20243;-47
2023/01/05 01:41:30;;;;;;;13.70;3.35;;;28.20;53.00;;;;;;5010870;28;20569;-52
2023/01/05 01:44:01;;;;;;;14.82;4.68;;;28.30;52.50;;;;;;5009971;28;20229;-47
2023/01/05 01:46:32;;;;;;;26.52;6.22;;;28.30;52.30;;;;;;5011397;28;20224;-52
2023/01/05 01:49:05;;;;;;;43.58;8.82;;;28.30;52.30;;;;;;4990600;28;20201;-55
2023/01/05 01:51:43;;;;;;;41.20;7.40;;;28.30;52.40;;;;;;4991941;28;20264;-47
2023/01/05 01:54:16;;;;;;;37.65;7.20;;;28.30;52.60;;;;;;4990153;28;20221;-55
2023/01/05 01:56:51;;;;;;;36.15;7.93;;;28.40;52.80;;;;;;4997708;28;20550;-54
2023/01/05 01:59:22;;;;;;;28.98;6.30;;;28.40;52.80;;;;;;5010423;28;20652;-48
2023/01/05 02:01:56;;;;;;;33.45;5.88;;;28.40;52.80;;;;;;5008291;28;20197;-50
2023/01/05 02:04:28;;;;;;;27.00;5.72;;;28.40;52.70;;;;;;5010758;28;20211;-50
2023/01/05 02:07:01;;;;;;;24.90;5.47;;;28.50;52.70;;;;;;5010859;28;20281;-46
2023/01/05 02:09:33;;;;;;;23.45;6.18;;;28.50;52.70;;;;;;5010264;28;20204;-47
2023/01/05 02:12:14;;;;;;;32.45;6.35;;;28.50;52.60;;;;;;5009841;28;20193;-53
2023/01/05 02:14:51;;;;;;;21.67;5.40;;;28.60;52.60;;;;;;5010100;28;20217;-46
2023/01/05 02:17:31;;;;;;;21.63;5.38;;;28.60;52.50;;;;;;5010468;28;20193;-49
2023/01/05 02:20:32;;;;;;;19.15;5.20;;;28.60;52.50;;;;;;5010011;28;20207;-49
2023/01/05 02:23:29;;;;;;;21.98;5.20;;;28.70;52.60;;;;;;5009740;28;20228;-47
2023/01/05 02:26:43;;;;;;;19.88;5.38;;;28.70;52.50;;;;;;5009895;28;20208;-45
2023/01/05 02:29:43;;;;;;;19.00;5.57;;;28.70;52.50;;;;;;4990680;28;20198;-48
2023/01/05 02:32:21;;;;;;;17.90;4.85;;;28.70;52.40;;;;;;4993426;28;20198;-46
2023/01/05 02:35:03;;;;;;;27.63;5.38;;;28.80;52.40;;;;;;4990160;28;20225;-49
2023/01/05 02:37:42;;;;;;;16.85;5.18;;;28.80;52.30;;;;;;4991610;28;20201;-45
2023/01/05 02:40:20;;;;;;;18.70;4.72;;;28.80;52.20;;;;;;4993019;28;20201;-45
2023/01/05 02:42:53;;;;;;;18.42;4.97;;;28.80;52.20;;;;;;4995154;28;20225;-45
2023/01/05 02:45:25;;;;;;;14.80;4.65;;;28.90;52.20;;;;;;4995097;28;20581;-46
2023/01/05 02:47:57;;;;;;;16.08;4.57;;;28.90;52.20;;;;;;4995078;28;20215;-47
2023/01/05 02:50:32;;;;;;;16.25;4.68;;;28.90;52.10;;;;;;4994704;28;20201;-47
2023/01/05 02:53:08;;;;;;;16.05;4.95;;;28.90;52.10;;;;;;4994552;28;20201;-47
2023/01/05 02:55:43;;;;;;;17.75;4.30;;;28.90;52.00;;;;;;4994349;28;20216;-46
2023/01/05 02:58:17;;;;;;;14.13;3.83;;;29.00;52.00;;;;;;4994577;28;20205;-48
2023/01/05 03:00:50;;;;;;;11.95;4.18;;;29.00;52.00;;;;;;4994923;28;20201;-53
2023/01/05 03:03:27;;;;;;;11.98;4.22;;;29.00;52.00;;;;;;5011833;28;20697;-47
2023/01/05 03:06:00;;;;;;;12.77;4.07;;;29.00;52.00;;;;;;5014898;28;20193;-50
2023/01/05 03:08:33;;;;;;;10.45;3.72;;;29.00;52.00;;;;;;5014356;28;20205;-49
2023/01/05 03:13:56;;;;;;;14.00;3.70;;;29.10;51.80;;;;;;5014369;28;20227;-46
2023/01/05 03:16:30;;;;;;;12.70;3.90;;;29.10;51.80;;;;;;5014478;28;20200;-49
2023/01/05 03:36:08;;;;;;;14.40;4.50;;;29.10;51.50;;;;;;5013417;28;20233;-58
2023/01/05 03:38:55;;;;;;;15.00;5.13;;;29.20;51.00;;;;;;5012433;28;20208;-53
2023/01/05 03:41:27;;;;;;;12.70;3.60;;;29.10;51.00;;;;;;5016094;28;20192;-50
2023/01/05 03:43:59;;;;;;;10.30;4.03;;;29.10;51.20;;;;;;5013537;28;20268;-49
2023/01/05 03:46:30;;;;;;;11.07;4.03;;;29.00;51.30;;;;;;5007727;28;20227;-50
2023/01/05 03:49:02;;;;;;;10.70;4.00;;;29.10;51.40;;;;;;5013210;28;20208;-46
2023/01/05 03:51:34;;;;;;;9.93;3.90;;;29.00;51.40;;;;;;5004895;28;20205;-50
2023/01/05 03:54:05;;;;;;;13.40;4.00;;;29.10;51.40;;;;;;5012737;28;20227;-48
2023/01/05 03:56:36;;;;;;;11.75;4.22;;;29.10;51.40;;;;;;5012850;28;20193;-47
2023/01/05 03:59:06;;;;;;;10.00;3.90;;;29.10;51.40;;;;;;5012394;28;20205;-47
2023/01/05 04:01:37;;;;;;;10.02;3.88;;;29.10;51.40;;;;;;5005702;28;20204;-50
2023/01/05 04:04:08;;;;;;;10.73;4.10;;;29.10;51.30;;;;;;5012069;28;20221;-50
2023/01/05 04:06:40;;;;;;;8.13;3.75;;;29.10;51.20;;;;;;5013909;28;20199;-48
2023/01/05 04:09:11;;;;;;;10.35;4.28;;;29.20;51.30;;;;;;5012319;28;20193;-48
2023/01/05 04:11:42;;;;;;;13.73;4.55;;;29.20;51.30;;;;;;4999964;28;20221;-51
2023/01/05 04:14:12;;;;;;;11.02;3.78;;;29.20;51.20;;;;;;4992859;28;20576;-48
2023/01/05 04:16:43;;;;;;;10.27;3.85;;;29.20;51.20;;;;;;4992006;28;20544;-49
2023/01/05 04:19:14;;;;;;;10.00;3.47;;;29.20;51.20;;;;;;4993150;28;20197;-50
2023/01/05 04:21:46;;;;;;;11.80;3.90;;;29.20;51.10;;;;;;4993129;28;20606;-49
2023/01/05 04:24:17;;;;;;;11.68;3.75;;;29.20;51.00;;;;;;4992168;28;20233;-46
2023/01/05 04:26:56;;;;;;;8.90;4.15;;;29.20;51.00;;;;;;5004834;28;20196;-49
2023/01/05 04:29:30;;;;;;;10.57;4.20;;;29.20;51.00;;;;;;5008370;28;20211;-50
2023/01/05 04:32:00;;;;;;;12.10;3.97;;;29.20;51.00;;;;;;4997120;28;20436;-48
2023/01/05 04:34:35;;;;;;;10.70;3.78;;;29.20;51.00;;;;;;4992112;28;20697;-49
2023/01/05 04:37:11;;;;;;;8.65;3.20;;;29.20;50.90;;;;;;5006540;28;20200;-51
2023/01/05 04:39:42;;;;;;;8.88;3.70;;;29.20;50.90;;;;;;5012485;28;20274;-47
2023/01/05 04:42:17;;;;;;;10.50;3.67;;;29.20;50.90;;;;;;4993987;28;20200;-49
2023/01/05 04:44:53;;;;;;;10.65;4.20;;;29.20;50.90;;;;;;4991662;28;20229;-51
2023/01/05 04:47:25;;;;;;;7.93;3.53;;;29.20;50.80;;;;;;4991735;28;20197;-49
2023/01/05 04:49:58;;;;;;;7.95;3.67;;;29.20;50.80;;;;;;4991324;28;20255;-50
2023/01/05 04:52:31;;;;;;;9.80;4.03;;;29.20;50.70;;;;;;5009740;28;20232;-50
2023/01/05 04:55:02;;;;;;;9.90;4.05;;;29.20;50.70;;;;;;5011009;28;20209;-48
2023/01/05 04:57:32;;;;;;;8.27;3.45;;;29.20;50.60;;;;;;5011123;28;20207;-52
2023/01/05 05:00:03;;;;;;;11.40;4.00;;;29.20;50.60;;;;;;5011101;28;20211;-49
2023/01/05 05:02:34;;;;;;;9.73;3.58;;;29.20;50.60;;;;;;4994818;28;20197;-45
2023/01/05 05:05:06;;;;;;;7.63;3.10;;;29.20;50.60;;;;;;4992293;28;20234;-45
2023/01/05 05:07:41;;;;;;;8.00;3.38;;;29.20;50.60;;;;;;5007546;28;20193;-53
2023/01/05 05:10:16;;;;;;;6.38;3.33;;;29.20;50.60;;;;;;5011017;28;20310;-47
2023/01/05 05:12:47;;;;;;;9.85;3.47;;;29.20;50.60;;;;;;5012418;28;20215;-46
2023/01/05 05:15:18;;;;;;;8.73;3.30;;;29.20;50.60;;;;;;5011255;28;20228;-54
2023/01/05 05:17:49;;;;;;;7.47;3.13;;;29.20;50.60;;;;;;5010063;28;20204;-50
2023/01/05 05:20:20;;;;;;;7.97;3.08;;;29.20;50.50;;;;;;5011689;28;20676;-55
2023/01/05 05:22:52;;;;;;;7.25;3.30;;;29.20;50.40;;;;;;5010608;28;20657;-51
2023/01/05 05:25:23;;;;;;;8.15;3.38;;;29.30;50.50;;;;;;5010535;28;20228;-48
2023/01/05 05:27:53;;;;;;;6.93;3.22;;;29.30;50.50;;;;;;5011756;28;20696;-51
2023/01/05 05:30:24;;;;;;;8.20;3.45;;;29.30;50.40;;;;;;5000560;28;20216;-53
2023/01/05 05:32:55;;;;;;;9.55;3.42;;;29.30;50.30;;;;;;5002301;28;20205;-52
2023/01/05 05:35:25;;;;;;;9.05;2.95;;;29.30;50.30;;;;;;4999707;28;20209;-52
2023/01/05 05:37:58;;;;;;;9.15;3.40;;;29.30;50.30;;;;;;5001942;28;20193;-52
2023/01/05 05:40:29;;;;;;;8.68;3.65;;;29.30;50.30;;;;;;5024947;28;20193;-57
2023/01/05 05:42:59;;;;;;;9.55;3.72;;;29.30;50.20;;;;;;5010997;28;20197;-56
2023/01/05 05:45:30;;;;;;;7.90;3.50;;;29.30;50.20;;;;;;5011216;28;20693;-54
2023/01/05 05:48:01;;;;;;;7.10;3.22;;;29.30;50.20;;;;;;5011110;28;20264;-53
2023/01/05 05:50:32;;;;;;;8.85;3.35;;;29.20;50.20;;;;;;5010174;28;20273;-51
2023/01/05 05:53:04;;;;;;;6.75;3.08;;;29.30;50.30;;;;;;5007453;28;20201;-56
2023/01/05 05:55:35;;;;;;;7.40;3.28;;;29.30;50.30;;;;;;4994646;28;20584;-49
2023/01/05 05:58:06;;;;;;;8.43;3.30;;;29.30;50.30;;;;;;4991031;28;20546;-57
2023/01/05 06:00:37;;;;;;;8.57;3.40;;;29.20;50.20;;;;;;4991556;28;20201;-50
2023/01/05 06:03:07;;;;;;;7.28;3.10;;;29.30;50.20;;;;;;5006584;28;20193;-53
2023/01/05 06:05:38;;;;;;;6.53;3.58;;;29.30;50.20;;;;;;5010690;28;20220;-52
2023/01/05 06:08:11;;;;;;;8.30;3.47;;;29.30;50.20;;;;;;4991904;28;20209;-46
2023/01/05 06:10:41;;;;;;;6.05;3.28;;;29.20;50.00;;;;;;5006585;28;20567;-56
2023/01/05 06:13:12;;;;;;;9.60;3.67;;;29.30;50.20;;;;;;5010212;28;20197;-53
2023/01/05 06:15:43;;;;;;;6.97;3.47;;;29.20;50.00;;;;;;5009959;28;20731;-55
2023/01/05 06:18:14;;;;;;;8.93;3.45;;;29.30;50.00;;;;;;5010459;28;20212;-51
2023/01/05 06:20:45;;;;;;;8.63;3.58;;;29.20;50.00;;;;;;5010958;28;20200;-54
2023/01/05 06:23:18;;;;;;;8.93;3.45;;;29.20;49.90;;;;;;5010489;28;20193;-51
2023/01/05 06:25:48;;;;;;;5.10;3.10;;;29.20;49.90;;;;;;5010504;28;20228;-52
2023/01/05 06:28:19;;;;;;;6.25;2.88;;;29.20;49.90;;;;;;5010922;28;20724;-55
2023/01/05 06:30:50;;;;;;;8.80;3.47;;;29.20;49.90;;;;;;5010758;28;20201;-54
2023/01/05 06:33:20;;;;;;;6.63;3.28;;;29.20;49.90;;;;;;5010504;28;20208;-56
2023/01/05 06:35:51;;;;;;;5.28;2.65;;;29.20;50.00;;;;;;5010877;28;20216;-47
2023/01/05 06:38:24;;;;;;;7.18;3.22;;;29.20;50.00;;;;;;5010288;28;20197;-54
2023/01/05 06:40:54;;;;;;;8.02;3.15;;;29.20;49.90;;;;;;5010812;28;20201;-55
2023/01/05 06:43:25;;;;;;;7.18;3.20;;;29.20;49.90;;;;;;5006914;28;20768;-53
2023/01/05 06:45:56;;;;;;;7.18;3.22;;;29.20;49.90;;;;;;4999505;28;20202;-51
2023/01/05 06:48:26;;;;;;;6.43;3.08;;;29.20;49.80;;;;;;4991107;28;20228;-52
2023/01/05 06:50:57;;;;;;;6.60;3.05;;;29.20;49.80;;;;;;4991040;28;20209;-55
2023/01/05 06:53:30;;;;;;;5.68;2.92;;;29.20;49.80;;;;;;4990809;28;20209;-54
2023/01/05 06:56:00;;;;;;;6.65;3.13;;;29.20;49.80;;;;;;5002430;28;20223;-49
2023/01/05 06:58:31;;;;;;;6.57;3.30;;;29.20;49.80;;;;;;5010765;28;20208;-54
2023/01/05 07:01:02;;;;;;;6.88;3.00;;;29.20;49.80;;;;;;5010109;28;20564;-53
2023/01/05 07:03:32;;;;;;;7.05;3.20;;;29.20;49.70;;;;;;5009541;28;20208;-49
2023/01/05 07:06:03;;;;;;;4.90;2.85;;;29.20;50.30;;;;;;5009827;28;20204;-51
2023/01/05 07:08:36;;;;;;;7.38;3.20;;;29.20;49.70;;;;;;5010232;28;20565;-52
2023/01/05 07:11:07;;;;;;;9.00;2.92;;;29.20;49.70;;;;;;5009847;28;20209;-53
2023/01/05 07:13:37;;;;;;;6.22;3.42;;;29.20;49.70;;;;;;4999656;28;20201;-50
2023/01/05 07:16:08;;;;;;;5.28;2.60;;;29.20;49.70;;;;;;4999737;28;20197;-53
2023/01/05 07:18:39;;;;;;;5.28;2.80;;;29.20;49.70;;;;;;4991630;28;20201;-52
2023/01/05 07:21:10;;;;;;;5.68;2.95;;;29.20;49.60;;;;;;4990432;28;20666;-54
2023/01/05 07:23:43;;;;;;;4.53;2.55;;;29.20;49.60;;;;;;4990104;28;20212;-53
2023/01/05 07:26:14;;;;;;;4.40;2.58;;;29.20;49.70;;;;;;4992399;28;20197;-46
2023/01/05 07:28:44;;;;;;;4.93;2.58;;;29.20;49.70;;;;;;5014283;28;20684;-56
2023/01/05 07:31:15;;;;;;;5.93;2.95;;;29.20;49.70;;;;;;5013668;28;20201;-57
2023/01/05 07:33:46;;;;;;;5.18;2.85;;;29.20;49.70;;;;;;5013372;28;20204;-56
2023/01/05 07:36:16;;;;;;;6.15;2.92;;;29.20;49.70;;;;;;5013636;28;20563;-55
2023/01/05 07:38:49;;;;;;;6.13;3.33;;;29.20;49.60;;;;;;5013436;28;20219;-53
2023/01/05 07:41:20;;;;;;;5.53;2.78;;;29.20;49.50;;;;;;5014524;28;20649;-54
2023/01/05 07:43:52;;;;;;;5.68;2.78;;;29.10;49.40;;;;;;5014646;28;20210;-53
2023/01/05 07:46:22;;;;;;;7.00;2.97;;;29.10;49.40;;;;;;5013922;28;20212;-55
2023/01/05 07:48:53;;;;;;;6.60;3.08;;;29.10;49.40;;;;;;5021198;28;20219;-54
2023/01/05 07:51:24;;;;;;;4.78;2.88;;;29.10;49.40;;;;;;5013650;28;20197;-56
2023/01/05 07:53:58;;;;;;;6.38;3.08;;;29.00;49.30;;;;;;5007078;28;20217;-53
2023/01/05 07:56:29;;;;;;;5.13;2.60;;;29.00;49.30;;;;;;5013123;28;20199;-55
2023/01/05 07:59:00;;;;;;;6.78;3.03;;;29.00;49.30;;;;;;5013593;28;20196;-50
2023/01/05 08:01:30;;;;;;;6.88;2.92;;;29.00;49.30;;;;;;5013754;28;20201;-57
2023/01/05 08:04:01;;;;;;;4.90;2.65;;;28.90;49.20;;;;;;5013539;28;20231;-56
2023/01/05 08:06:32;;;;;;;6.18;2.90;;;29.00;49.30;;;;;;5012711;28;20200;-52
2023/01/05 08:10:27;;;;;;;5.15;2.88;;;28.90;49.30;;;;;;5002144;28;20300;-55
2023/01/05 08:11:55;;;;;;;4.05;2.70;;;28.90;49.20;;;;;;5005370;28;20287;-51
2023/01/05 08:14:29;;;;;;;4.20;2.70;;;28.90;49.20;;;;;;5012651;28;20312;-52
2023/01/05 08:17:00;;;;;;;6.47;2.90;;;28.90;49.20;;;;;;5012887;28;20197;-55
2023/01/05 08:19:31;;;;;;;5.75;3.00;;;28.80;49.10;;;;;;5013093;28;20228;-53
2023/01/05 08:22:01;;;;;;;4.95;2.22;;;28.80;49.20;;;;;;5012506;28;20676;-46
2023/01/05 08:24:34;;;;;;;4.75;2.58;;;28.80;49.10;;;;;;5012162;28;20240;-54
2023/01/05 08:27:05;;;;;;;4.60;2.40;;;28.70;49.10;;;;;;5012486;28;20200;-50
2023/01/05 08:29:35;;;;;;;7.00;3.15;;;28.70;49.10;;;;;;5012682;28;20208;-54
2023/01/05 08:32:06;;;;;;;4.55;2.80;;;28.70;49.10;;;;;;5012248;28;20215;-57
2023/01/05 08:34:37;;;;;;;5.57;2.60;;;28.60;49.10;;;;;;5012345;28;20232;-56
2023/01/05 08:37:08;;;;;;;5.22;2.58;;;28.70;49.20;;;;;;5011588;28;20193;-52
2023/01/05 08:39:40;;;;;;;4.13;2.80;;;28.60;49.10;;;;;;5012219;28;20776;-51
2023/01/05 08:42:11;;;;;;;5.20;2.83;;;28.60;49.20;;;;;;5012393;28;20201;-54
2023/01/05 08:44:41;;;;;;;4.60;2.58;;;28.60;49.20;;;;;;5012332;28;20220;-51
2023/01/05 08:47:12;;;;;;;6.78;3.17;;;28.50;49.10;;;;;;5011908;28;20201;-52
2023/01/05 08:49:43;;;;;;;6.22;3.05;;;28.50;48.70;;;;;;5011981;28;20212;-53
2023/01/05 08:52:13;;;;;;;7.40;3.10;;;28.50;48.20;;;;;;5006291;28;20594;-47
2023/01/05 08:54:46;;;;;;;5.88;2.70;;;28.50;48.00;;;;;;5011872;28;20225;-44
2023/01/05 08:57:16;;;;;;;6.82;3.00;;;28.40;47.90;;;;;;5004108;28;20571;-48
2023/01/05 08:59:47;;;;;;;7.38;2.83;;;28.40;47.80;;;;;;4991687;28;20232;-48
2023/01/05 09:02:18;;;;;;;4.60;3.00;;;28.30;47.70;;;;;;4991659;28;20200;-49
2023/01/05 09:04:48;;;;;;;8.30;3.50;;;28.30;47.70;;;;;;4992062;28;20225;-49
2023/01/05 09:07:19;;;;;;;6.25;2.67;;;28.20;47.60;;;;;;5008842;28;20189;-53
2023/01/05 09:09:52;;;;;;;5.57;3.00;;;28.20;47.60;;;;;;5001532;28;20217;-51
2023/01/05 09:12:23;;;;;;;5.55;2.50;;;28.10;48.30;;;;;;4994741;28;20650;-51
2023/01/05 09:14:53;;;;;;;5.53;2.97;;;28.10;47.70;;;;;;4991623;28;20218;-52
2023/01/05 09:17:25;;;;;;;4.78;2.90;;;28.10;47.80;;;;;;5008231;28;20259;-53
2023/01/05 09:19:56;;;;;;;5.57;2.92;;;28.00;47.80;;;;;;5011264;28;20890;-52
2023/01/05 09:22:26;;;;;;;5.32;2.80;;;28.00;47.80;;;;;;5011957;28;20220;-46
2023/01/05 09:24:59;;;;;;;6.20;3.00;;;28.00;47.90;;;;;;5011105;28;20235;-53
2023/01/05 09:27:30;;;;;;;5.53;3.00;;;28.00;47.90;;;;;;5011128;28;20192;-50
2023/01/05 09:30:01;;;;;;;4.45;2.60;;;27.90;47.90;;;;;;5011601;28;20236;-53
2023/01/05 09:32:32;;;;;;;7.20;3.15;;;27.90;47.90;;;;;;5011414;28;20204;-54
2023/01/05 09:35:02;;;;;;;5.32;2.83;;;27.90;48.00;;;;;;5011423;28;20216;-55
2023/01/05 09:37:33;;;;;;;6.93;3.00;;;27.90;48.00;;;;;;5008396;28;20189;-51
2023/01/05 09:40:06;;;;;;;5.30;2.63;;;27.80;48.00;;;;;;5010962;28;20196;-54
2023/01/05 09:42:38;;;;;;;5.22;2.55;;;27.80;48.00;;;;;;4993385;28;20193;-52
2023/01/05 09:45:09;;;;;;;5.97;2.60;;;27.80;48.00;;;;;;4992252;28;20229;-52
2023/01/05 09:47:44;;;;;;;5.10;2.88;;;27.70;48.00;;;;;;5010419;28;20215;-50
2023/01/05 09:50:21;;;;;;;5.80;2.88;;;27.70;48.00;;;;;;5010004;28;20203;-54
2023/01/05 09:52:56;;;;;;;5.43;2.60;;;27.70;48.00;;;;;;5010038;28;20660;-49
2023/01/05 09:55:33;;;;;;;4.25;2.42;;;27.70;48.20;;;;;;5010171;28;20224;-44
2023/01/05 09:58:07;;;;;;;4.22;2.42;;;27.60;48.10;;;;;;5029731;28;20203;-49
2023/01/05 10:00:41;;;;;;;4.57;2.60;;;27.60;48.20;;;;;;5029996;28;20767;-51
2023/01/05 10:03:19;;;;;;;4.68;2.13;;;27.60;48.20;;;;;;5006688;28;20200;-50
2023/01/05 10:05:50;;;;;;;4.10;2.35;;;27.60;48.20;;;;;;5009387;28;20225;-48
2023/01/05 10:08:32;;;;;;;4.45;2.40;;;27.60;48.20;;;;;;4991311;28;20194;-50
2023/01/05 10:14:02;;;;;;;5.18;2.25;;;27.50;48.20;;;;;;4991099;28;20239;-47
2023/01/05 10:16:33;;;;;;;4.22;2.50;;;27.50;48.30;;;;;;4996471;28;20193;-49
2023/01/05 10:19:04;;;;;;;4.60;2.40;;;27.50;48.30;;;;;;5010401;28;20209;-54
2023/01/05 10:21:48;;;;;;;4.53;2.42;;;27.40;48.20;;;;;;5003133;28;20787;-51
2023/01/05 10:24:28;;;;;;;6.60;2.42;;;27.40;48.30;;;;;;4990689;28;20217;-53
2023/01/05 10:27:08;;;;;;;3.33;2.13;;;27.40;48.30;;;;;;5000259;28;20204;-49
2023/01/05 10:29:44;;;;;;;4.35;2.40;;;27.30;48.20;;;;;;5010975;28;20196;-55
2023/01/05 10:32:25;;;;;;;3.83;2.10;;;27.30;48.40;;;;;;5010247;28;20216;-48
2023/01/05 10:35:01;;;;;;;4.30;2.08;;;27.20;48.30;;;;;;5009934;28;20645;-55
2023/01/05 10:37:48;;;;;;;5.03;2.72;;;27.20;48.30;;;;;;4996154;28;20205;-45
2023/01/05 10:40:30;;;;;;;3.92;2.22;;;27.20;48.40;;;;;;4989864;28;20190;-47
2023/01/05 10:43:30;;;;;;;4.28;2.10;;;27.20;48.40;;;;;;5007818;28;20285;-54
2023/01/05 10:46:02;;;;;;;4.32;2.20;;;27.10;48.30;;;;;;5002121;28;20228;-55
2023/01/05 10:48:37;;;;;;;3.22;2.25;;;27.10;48.40;;;;;;4990623;28;20205;-54
2023/01/05 10:51:09;;;;;;;3.53;2.10;;;27.10;48.40;;;;;;4992011;28;20205;-56
2023/01/05 10:53:42;;;;;;;4.05;2.20;;;27.10;48.40;;;;;;5009945;28;20203;-56
2023/01/05 10:56:17;;;;;;;3.63;2.20;;;27.10;48.40;;;;;;5009182;28;20199;-55
2023/01/05 10:58:49;;;;;;;4.00;2.22;;;27.00;48.40;;;;;;4990993;28;20201;-54
2023/01/05 11:01:26;;;;;;;3.70;1.95;;;27.00;48.50;;;;;;4992810;28;20194;-55
2023/01/05 11:04:03;;;;;;;3.38;2.13;;;27.00;48.50;;;;;;4994687;28;20607;-53
2023/01/05 11:06:36;;;;;;;4.05;2.33;;;27.00;48.50;;;;;;4998364;28;20224;-57
2023/01/05 11:09:17;;;;;;;5.25;2.42;;;26.90;48.50;;;;;;5012799;28;20216;-52
2023/01/05 11:11:56;;;;;;;3.95;2.00;;;26.90;48.60;;;;;;5004688;28;20205;-48
2023/01/05 11:14:30;;;;;;;3.35;1.90;;;26.90;48.60;;;;;;5011379;28;20264;-48
2023/01/05 11:17:05;;;;;;;4.10;2.25;;;26.80;48.60;;;;;;5003485;28;20205;-53
2023/01/05 11:19:39;;;;;;;5.95;2.60;;;26.80;48.60;;;;;;5012539;28;20212;-56
2023/01/05 11:22:35;;;;;;;3.40;2.05;;;26.80;48.60;;;;;;5002886;28;20285;-51
2023/01/05 11:25:24;;;;;;;4.00;2.00;;;26.80;48.60;;;;;;4993855;28;20666;-57
2023/01/05 11:28:12;;;;;;;3.50;2.10;;;26.70;48.50;;;;;;4988059;28;20611;-55
2023/01/05 11:31:00;;;;;;;2.30;1.70;;;26.70;48.60;;;;;;4993088;28;20730;-56
2023/01/05 11:33:32;;;;;;;3.97;1.80;;;26.70;48.60;;;;;;5013724;28;20201;-53
2023/01/05 11:36:04;;;;;;;3.53;2.05;;;26.70;48.70;;;;;;5012628;28;20233;-51
2023/01/05 11:38:36;;;;;;;3.83;2.15;;;26.60;49.20;;;;;;4993728;28;20202;-52
2023/01/05 11:41:13;;;;;;;4.07;2.55;;;26.60;48.60;;;;;;4993293;28;20198;-50
2023/01/05 11:43:47;;;;;;;3.78;1.80;;;26.60;48.70;;;;;;4993704;28;20208;-52
2023/01/05 11:46:20;;;;;;;3.05;1.80;;;26.50;48.70;;;;;;4994280;28;20716;-51
2023/01/05 11:48:55;;;;;;;4.07;1.83;;;26.50;48.70;;;;;;4994556;28;20209;-51
2023/01/05 11:51:40;;;;;;;3.60;2.17;;;26.50;48.70;;;;;;4994504;28;20205;-55
2023/01/05 11:54:34;;;;;;;3.53;1.90;;;26.50;48.70;;;;;;4994259;28;20244;-56
2023/01/05 11:57:25;;;;;;;3.30;1.80;;;26.40;48.70;;;;;;4994208;28;20198;-53
2023/01/05 11:59:57;;;;;;;2.97;1.70;;;26.40;48.80;;;;;;5010338;28;20240;-52
2023/01/05 12:02:58;;;;;;;3.15;2.00;;;26.40;48.70;;;;;;5013409;28;20292;-53
2023/01/05 12:05:36;;;;;;;3.47;2.05;;;26.30;48.70;;;;;;5007070;28;20236;-52
2023/01/05 12:08:12;;;;;;;3.85;1.90;;;26.40;48.80;;;;;;5003026;28;20190;-51
2023/01/05 12:11:07;;;;;;;3.78;2.00;;;26.30;48.70;;;;;;5002438;28;20235;-53
2023/01/05 12:13:51;;;;;;;3.47;1.90;;;26.30;48.80;;;;;;5000520;28;20558;-47
2023/01/05 12:16:34;;;;;;;3.75;2.15;;;26.30;48.80;;;;;;5002170;28;20200;-53
2023/01/05 12:19:43;;;;;;;2.95;1.83;;;26.20;48.80;;;;;;5001396;28;20288;-52
2023/01/05 12:22:34;;;;;;;2.50;1.48;;;26.20;48.90;;;;;;5003192;28;20199;-50
2023/01/05 12:25:13;;;;;;;3.83;2.20;;;26.20;48.90;;;;;;5002024;28;20229;-54
2023/01/05 12:27:58;;;;;;;3.50;1.77;;;26.20;48.90;;;;;;5002510;28;20194;-53
2023/01/05 12:30:35;;;;;;;3.50;2.05;;;26.10;48.80;;;;;;5002650;28;20222;-49
2023/01/05 12:33:22;;;;;;;3.17;1.65;;;26.10;48.80;;;;;;5004325;28;20197;-51
2023/01/05 12:36:17;;;;;;;2.83;1.77;;;26.10;48.90;;;;;;5002806;28;20225;-48
2023/01/05 12:38:55;;;;;;;2.85;1.80;;;26.10;48.90;;;;;;5001960;28;20196;-44
2023/01/05 12:41:49;;;;;;;3.30;2.10;;;26.00;48.90;;;;;;5010913;28;20200;-49
2023/01/05 12:44:46;;;;;;;2.78;1.90;;;26.00;48.80;;;;;;5012852;28;20224;-47
2023/01/05 12:47:40;;;;;;;4.00;1.92;;;26.00;48.90;;;;;;5011793;28;20231;-51
2023/01/05 12:50:24;;;;;;;3.08;1.80;;;26.00;48.90;;;;;;5012335;28;20687;-48
2023/01/05 12:53:02;;;;;;;3.10;1.83;;;25.90;48.90;;;;;;5013069;28;20204;-50
2023/01/05 12:55:37;;;;;;;5.97;1.92;;;25.90;48.90;;;;;;5012641;28;20591;-48
2023/01/05 12:58:13;;;;;;;3.55;1.85;;;25.90;48.90;;;;;;5012849;28;20207;-52
2023/01/05 13:00:46;;;;;;;2.92;1.77;;;25.90;49.00;;;;;;5012503;28;20193;-49
2023/01/05 13:03:24;;;;;;;3.13;1.80;;;25.80;49.00;;;;;;5011970;28;20200;-50
2023/01/05 13:06:04;;;;;;;3.22;1.65;;;25.80;49.00;;;;;;5011981;28;20318;-48
2023/01/05 13:08:43;;;;;;;4.13;1.80;;;25.80;49.10;;;;;;5012012;28;20683;-49
2023/01/05 13:11:21;;;;;;;2.63;1.65;;;25.80;49.10;;;;;;5012000;28;20197;-49
2023/01/05 13:13:56;;;;;;;3.00;1.50;;;25.80;49.10;;;;;;5011784;28;20193;-52
2023/01/05 13:16:29;;;;;;;3.58;2.05;;;25.70;49.00;;;;;;5011779;28;20200;-47
2023/01/05 13:19:05;;;;;;;2.40;1.60;;;25.70;49.10;;;;;;5011799;28;20196;-49
2023/01/05 13:21:41;;;;;;;2.90;1.40;;;25.70;49.00;;;;;;5011911;28;20208;-49
2023/01/05 13:24:21;;;;;;;2.85;1.73;;;25.70;49.00;;;;;;5011388;28;20224;-49
2023/01/05 13:26:52;;;;;;;2.58;1.70;;;25.70;49.10;;;;;;5011736;28;20260;-45
2023/01/05 13:29:26;;;;;;;2.67;1.65;;;25.60;49.10;;;;;;5011470;28;20201;-48
2023/01/05 13:32:18;;;;;;;2.47;1.58;;;25.60;49.10;;;;;;5012059;28;20555;-55
2023/01/05 13:35:22;;;;;;;2.72;1.67;;;25.60;49.10;;;;;;5012579;28;20208;-54
2023/01/05 13:38:17;;;;;;;3.90;1.85;;;25.60;49.10;;;;;;4969824;28;20205;-55
2023/01/05 13:41:02;;;;;;;3.15;2.10;;;25.60;49.20;;;;;;5009548;28;20201;-55
2023/01/05 13:43:59;;;;;;;2.78;1.80;;;25.50;49.10;;;;;;5011230;28;20211;-51
2023/01/05 13:46:58;;;;;;;2.80;1.60;;;25.50;49.20;;;;;;5009229;28;20267;-51
2023/01/05 13:49:55;;;;;;;3.00;1.73;;;25.50;49.20;;;;;;5000424;28;20204;-56
2023/01/05 13:52:34;;;;;;;3.15;1.70;;;25.50;49.20;;;;;;5010785;28;20208;-55
2023/01/05 13:55:07;;;;;;;3.60;1.70;;;25.50;49.20;;;;;;5010586;28;20692;-55
2023/01/05 13:57:44;;;;;;;2.53;1.60;;;25.40;49.20;;;;;;5011562;28;20339;-47
2023/01/05 14:00:27;;;;;;;2.92;1.77;;;25.40;49.20;;;;;;5013853;28;20196;-56